sensor_id;sensor_type;location;lat;lon;timestamp;pressure;altitude;pressure_sealevel;temperature;humidity
77240;BME280;66258;53.170;-2.240;2023-10-19T00:00:58;96915.63;;;22.85;100.00
77240;BME280;66258;53.170;-2.240;2023-10-19T00:03:25;96917.88;;;22.92;100.00
77240;BME280;66258;53.170;-2.240;2023-10-19T00:05:55;96912.38;;;22.66;100.00
77240;BME280;66258;53.170;-2.240;2023-10-19T00:08:22;96916.72;;;22.93;100.00
77240;BME280;66258;53.170;-2.240;2023-10-19T00:10:51;96915.59;;;23.03;100.00
77240;BME280;66258;53.170;-2.240;2023-10-19T00:13:20;96907.97;;;23.00;100.00
77240;BME280;66258;53.170;-2.240;2023-10-19T00:15:47;96915.91;;;23.01;100.00
77240;BME280;66258;53.170;-2.240;2023-10-19T00:18:15;96896.00;;;22.70;100.00
77240;BME280;66258;53.170;-2.240;2023-10-19T00:20:50;96903.47;;;22.78;100.00
77240;BME280;66258;53.170;-2.240;2023-10-19T00:23:19;96897.31;;;22.81;100.00
77240;BME280;66258;53.170;-2.240;2023-10-19T00:25:47;96911.25;;;22.84;100.00
77240;BME280;66258;53.170;-2.240;2023-10-19T00:28:14;96904.63;;;22.59;100.00
77240;BME280;66258;53.170;-2.240;2023-10-19T00:30:43;96904.09;;;22.66;100.00
77240;BME280;66258;53.170;-2.240;2023-10-19T00:33:14;96909.47;;;22.62;100.00
77240;BME280;66258;53.170;-2.240;2023-10-19T00:35:41;96906.88;;;22.49;100.00
77240;BME280;66258;53.170;-2.240;2023-10-19T00:38:08;96907.53;;;22.46;100.00
77240;BME280;66258;53.170;-2.240;2023-10-19T00:40:39;96909.00;;;22.52;100.00
77240;BME280;66258;53.170;-2.240;2023-10-19T00:43:12;96917.88;;;22.75;100.00
77240;BME280;66258;53.170;-2.240;2023-10-19T00:45:39;96905.88;;;22.88;100.00
77240;BME280;66258;53.170;-2.240;2023-10-19T00:48:08;96912.56;;;22.78;100.00
77240;BME280;66258;53.170;-2.240;2023-10-19T00:50:41;96909.31;;;22.85;100.00
77240;BME280;66258;53.170;-2.240;2023-10-19T00:53:08;96907.03;;;22.78;100.00
77240;BME280;66258;53.170;-2.240;2023-10-19T00:55:35;96915.59;;;22.77;100.00
77240;BME280;66258;53.170;-2.240;2023-10-19T00:58:03;96911.41;;;22.79;100.00
77240;BME280;66258;53.170;-2.240;2023-10-19T01:00:30;96915.47;;;22.56;100.00
77240;BME280;66258;53.170;-2.240;2023-10-19T01:02:58;96918.22;;;22.47;100.00
77240;BME280;66258;53.170;-2.240;2023-10-19T01:05:27;96924.69;;;22.69;100.00
77240;BME280;66258;53.170;-2.240;2023-10-19T01:07:55;96923.75;;;22.65;100.00
77240;BME280;66258;53.170;-2.240;2023-10-19T01:10:25;96914.50;;;22.78;100.00
77240;BME280;66258;53.170;-2.240;2023-10-19T01:12:52;96921.16;;;22.85;100.00
77240;BME280;66258;53.170;-2.240;2023-10-19T01:15:21;96927.97;;;22.79;100.00
77240;BME280;66258;53.170;-2.240;2023-10-19T01:17:50;96923.09;;;22.85;100.00
77240;BME280;66258;53.170;-2.240;2023-10-19T01:20:21;96918.53;;;22.89;100.00
77240;BME280;66258;53.170;-2.240;2023-10-19T01:22:52;96925.84;;;22.85;100.00
77240;BME280;66258;53.170;-2.240;2023-10-19T01:25:20;96928.13;;;22.83;100.00
77240;BME280;66258;53.170;-2.240;2023-10-19T01:27:47;96936.41;;;22.83;100.00
77240;BME280;66258;53.170;-2.240;2023-10-19T01:30:15;96936.06;;;22.84;100.00
77240;BME280;66258;53.170;-2.240;2023-10-19T01:32:42;96932.50;;;22.84;100.00
77240;BME280;66258;53.170;-2.240;2023-10-19T01:35:09;96928.75;;;22.88;100.00
77240;BME280;66258;53.170;-2.240;2023-10-19T01:37:39;96930.84;;;22.91;100.00
77240;BME280;66258;53.170;-2.240;2023-10-19T01:40:10;96931.97;;;22.90;100.00
77240;BME280;66258;53.170;-2.240;2023-10-19T01:42:41;96929.53;;;22.89;100.00
77240;BME280;66258;53.170;-2.240;2023-10-19T01:45:08;96927.75;;;22.93;100.00
77240;BME280;66258;53.170;-2.240;2023-10-19T01:47:36;96929.06;;;22.95;100.00
77240;BME280;66258;53.170;-2.240;2023-10-19T01:50:08;96926.28;;;22.95;100.00
77240;BME280;66258;53.170;-2.240;2023-10-19T01:52:35;96933.13;;;22.98;100.00
77240;BME280;66258;53.170;-2.240;2023-10-19T01:55:03;96922.72;;;22.95;100.00
77240;BME280;66258;53.170;-2.240;2023-10-19T01:57:31;96920.47;;;22.97;100.00
77240;BME280;66258;53.170;-2.240;2023-10-19T01:59:58;96913.81;;;22.98;100.00
77240;BME280;66258;53.170;-2.240;2023-10-19T02:02:25;96916.88;;;22.96;100.00
77240;BME280;66258;53.170;-2.240;2023-10-19T02:04:53;96913.47;;;23.00;100.00
77240;BME280;66258;53.170;-2.240;2023-10-19T02:07:20;96917.84;;;23.01;100.00
77240;BME280;66258;53.170;-2.240;2023-10-19T02:09:47;96915.59;;;23.03;100.00
77240;BME280;66258;53.170;-2.240;2023-10-19T02:12:14;96921.75;;;23.00;100.00
77240;BME280;66258;53.170;-2.240;2023-10-19T02:14:49;96917.69;;;22.97;100.00
77240;BME280;66258;53.170;-2.240;2023-10-19T02:17:18;96915.09;;;23.01;100.00
77240;BME280;66258;53.170;-2.240;2023-10-19T02:19:45;96909.09;;;22.99;100.00
77240;BME280;66258;53.170;-2.240;2023-10-19T02:22:15;96907.31;;;22.94;100.00
77240;BME280;66258;53.170;-2.240;2023-10-19T02:24:43;96917.69;;;22.97;100.00
77240;BME280;66258;53.170;-2.240;2023-10-19T02:27:10;96910.56;;;23.05;100.00
77240;BME280;66258;53.170;-2.240;2023-10-19T02:29:53;96912.50;;;23.04;100.00
77240;BME280;66258;53.170;-2.240;2023-10-19T02:32:21;96917.03;;;23.00;100.00
77240;BME280;66258;53.170;-2.240;2023-10-19T02:34:48;96897.91;;;22.95;100.00
77240;BME280;66258;53.170;-2.240;2023-10-19T02:37:16;96895.63;;;22.97;100.00
77240;BME280;66258;53.170;-2.240;2023-10-19T02:39:43;96900.50;;;23.00;100.00
77240;BME280;66258;53.170;-2.240;2023-10-19T02:42:11;96906.00;;;23.00;100.00
77240;BME280;66258;53.170;-2.240;2023-10-19T02:44:38;96903.59;;;22.99;100.00
77240;BME280;66258;53.170;-2.240;2023-10-19T02:47:07;96901.16;;;22.97;100.00
77240;BME280;66258;53.170;-2.240;2023-10-19T02:49:35;96903.44;;;22.95;100.00
77240;BME280;66258;53.170;-2.240;2023-10-19T02:52:03;96905.22;;;23.00;100.00
77240;BME280;66258;53.170;-2.240;2023-10-19T02:54:31;96909.25;;;23.02;100.00
77240;BME280;66258;53.170;-2.240;2023-10-19T02:56:59;96900.31;;;23.05;100.00
77240;BME280;66258;53.170;-2.240;2023-10-19T02:59:27;96910.56;;;22.96;100.00
77240;BME280;66258;53.170;-2.240;2023-10-19T03:01:56;96897.09;;;22.94;100.00
77240;BME280;66258;53.170;-2.240;2023-10-19T03:04:25;96900.19;;;22.93;100.00
77240;BME280;66258;53.170;-2.240;2023-10-19T03:06:55;96907.38;;;22.85;100.00
77240;BME280;66258;53.170;-2.240;2023-10-19T03:09:23;96906.06;;;22.83;100.00
77240;BME280;66258;53.170;-2.240;2023-10-19T03:11:50;96906.56;;;22.85;100.00
77240;BME280;66258;53.170;-2.240;2023-10-19T03:14:17;96901.00;;;22.68;100.00
77240;BME280;66258;53.170;-2.240;2023-10-19T03:16:45;96905.75;;;22.84;100.00
77240;BME280;66258;53.170;-2.240;2023-10-19T03:19:14;96910.94;;;22.86;100.00
77240;BME280;66258;53.170;-2.240;2023-10-19T03:21:48;96898.28;;;22.85;100.00
77240;BME280;66258;53.170;-2.240;2023-10-19T03:24:18;96895.81;;;22.92;100.00
77240;BME280;66258;53.170;-2.240;2023-10-19T03:26:45;96895.16;;;22.86;100.00
77240;BME280;66258;53.170;-2.240;2023-10-19T03:29:12;96894.00;;;22.96;100.00
77240;BME280;66258;53.170;-2.240;2023-10-19T03:31:39;96895.16;;;22.86;100.00
77240;BME280;66258;53.170;-2.240;2023-10-19T03:34:07;96899.38;;;22.92;100.00
77240;BME280;66258;53.170;-2.240;2023-10-19T03:36:35;96904.59;;;22.85;100.00
77240;BME280;66258;53.170;-2.240;2023-10-19T03:39:04;96901.47;;;22.95;100.00
77240;BME280;66258;53.170;-2.240;2023-10-19T03:41:31;96902.13;;;22.92;100.00
77240;BME280;66258;53.170;-2.240;2023-10-19T03:43:59;96907.31;;;22.94;100.00
77240;BME280;66258;53.170;-2.240;2023-10-19T03:46:50;96905.03;;;22.96;100.00
77240;BME280;66258;53.170;-2.240;2023-10-19T03:49:41;96899.03;;;23.03;100.00
77240;BME280;66258;53.170;-2.240;2023-10-19T03:52:09;96899.06;;;22.94;100.00
77240;BME280;66258;53.170;-2.240;2023-10-19T03:54:38;96896.19;;;22.82;100.00
77240;BME280;66258;53.170;-2.240;2023-10-19T03:57:06;96891.25;;;22.96;100.00
77240;BME280;66258;53.170;-2.240;2023-10-19T03:59:57;96896.44;;;22.98;100.00
77240;BME280;66258;53.170;-2.240;2023-10-19T04:02:48;96891.09;;;23.01;100.00
77240;BME280;66258;53.170;-2.240;2023-10-19T04:05:15;96888.81;;;23.03;100.00
77240;BME280;66258;53.170;-2.240;2023-10-19T04:07:43;96892.88;;;23.06;100.00
77240;BME280;66258;53.170;-2.240;2023-10-19T04:10:13;96893.81;;;23.10;100.00
77240;BME280;66258;53.170;-2.240;2023-10-19T04:12:44;96899.38;;;22.92;100.00
77240;BME280;66258;53.170;-2.240;2023-10-19T04:15:12;96888.91;;;23.15;100.00
77240;BME280;66258;53.170;-2.240;2023-10-19T04:17:40;96892.06;;;23.05;100.00
77240;BME280;66258;53.170;-2.240;2023-10-19T04:20:09;96891.53;;;23.12;100.00
77240;BME280;66258;53.170;-2.240;2023-10-19T04:22:36;96890.84;;;23.23;100.00
77240;BME280;66258;53.170;-2.240;2023-10-19T04:25:04;96890.72;;;23.11;100.00
77240;BME280;66258;53.170;-2.240;2023-10-19T04:27:37;96905.00;;;23.13;100.00
77240;BME280;66258;53.170;-2.240;2023-10-19T04:30:05;96896.22;;;23.11;100.00
77240;BME280;66258;53.170;-2.240;2023-10-19T04:32:33;96896.22;;;23.11;100.00
77240;BME280;66258;53.170;-2.240;2023-10-19T04:35:01;96891.69;;;23.15;100.00
77240;BME280;66258;53.170;-2.240;2023-10-19T04:37:28;96897.03;;;23.20;100.00
77240;BME280;66258;53.170;-2.240;2023-10-19T04:39:56;96898.47;;;23.26;100.00
77240;BME280;66258;53.170;-2.240;2023-10-19T04:42:26;96895.41;;;23.19;100.00
77240;BME280;66258;53.170;-2.240;2023-10-19T04:44:54;96892.75;;;23.31;100.00
77240;BME280;66258;53.170;-2.240;2023-10-19T04:47:22;96888.69;;;23.29;100.00
77240;BME280;66258;53.170;-2.240;2023-10-19T04:50:13;96889.63;;;23.42;100.00
77240;BME280;66258;53.170;-2.240;2023-10-19T04:52:40;96888.34;;;23.30;100.00
77240;BME280;66258;53.170;-2.240;2023-10-19T04:55:08;96888.50;;;23.34;100.00
77240;BME280;66258;53.170;-2.240;2023-10-19T04:57:35;96890.28;;;23.39;100.00
77240;BME280;66258;53.170;-2.240;2023-10-19T05:00:08;96884.09;;;23.42;100.00
77240;BME280;66258;53.170;-2.240;2023-10-19T05:02:35;96890.59;;;23.46;100.00
77240;BME280;66258;53.170;-2.240;2023-10-19T05:05:03;96895.41;;;23.49;100.00
77240;BME280;66258;53.170;-2.240;2023-10-19T05:07:31;96895.63;;;23.44;100.00
77240;BME280;66258;53.170;-2.240;2023-10-19T05:09:58;96901.31;;;23.39;100.00
77240;BME280;66258;53.170;-2.240;2023-10-19T05:12:26;96906.34;;;23.37;100.00
77240;BME280;66258;53.170;-2.240;2023-10-19T05:14:56;96909.59;;;23.39;100.00
77240;BME280;66258;53.170;-2.240;2023-10-19T05:17:24;96903.13;;;23.35;100.00
77240;BME280;66258;53.170;-2.240;2023-10-19T05:19:56;96897.53;;;23.14;100.00
77240;BME280;66258;53.170;-2.240;2023-10-19T05:22:23;96899.06;;;23.32;100.00
77240;BME280;66258;53.170;-2.240;2023-10-19T05:24:51;96893.81;;;23.48;100.00
77240;BME280;66258;53.170;-2.240;2023-10-19T05:27:42;96889.13;;;23.48;100.00
77240;BME280;66258;53.170;-2.240;2023-10-19T05:30:13;96893.13;;;23.51;100.00
77240;BME280;66258;53.170;-2.240;2023-10-19T05:32:42;96888.47;;;23.43;100.00
77240;BME280;66258;53.170;-2.240;2023-10-19T05:35:09;96884.75;;;23.39;100.00
77240;BME280;66258;53.170;-2.240;2023-10-19T05:37:37;96883.59;;;23.48;100.00
77240;BME280;66258;53.170;-2.240;2023-10-19T05:40:05;96880.13;;;23.51;100.00
77240;BME280;66258;53.170;-2.240;2023-10-19T05:42:33;96873.13;;;23.62;100.00
77240;BME280;66258;53.170;-2.240;2023-10-19T05:45:00;96861.00;;;23.55;100.00
77240;BME280;66258;53.170;-2.240;2023-10-19T05:47:28;96875.28;;;23.57;100.00
77240;BME280;66258;53.170;-2.240;2023-10-19T05:49:57;96878.84;;;23.57;100.00
77240;BME280;66258;53.170;-2.240;2023-10-19T05:52:24;96875.47;;;23.52;100.00
77240;BME280;66258;53.170;-2.240;2023-10-19T05:54:54;96872.03;;;23.55;100.00
77240;BME280;66258;53.170;-2.240;2023-10-19T05:57:45;96878.25;;;23.43;100.00
77240;BME280;66258;53.170;-2.240;2023-10-19T06:00:15;96866.66;;;23.50;100.00
77240;BME280;66258;53.170;-2.240;2023-10-19T06:02:43;96872.41;;;23.45;100.00
77240;BME280;66258;53.170;-2.240;2023-10-19T06:05:13;96869.97;;;23.43;100.00
77240;BME280;66258;53.170;-2.240;2023-10-19T06:07:46;96879.03;;;23.52;100.00
77240;BME280;66258;53.170;-2.240;2023-10-19T06:10:16;96869.94;;;23.52;100.00
77240;BME280;66258;53.170;-2.240;2023-10-19T06:12:44;96869.28;;;23.55;100.00
77240;BME280;66258;53.170;-2.240;2023-10-19T06:15:12;96871.53;;;23.61;100.00
77240;BME280;66258;53.170;-2.240;2023-10-19T06:17:40;96867.00;;;23.57;100.00
77240;BME280;66258;53.170;-2.240;2023-10-19T06:20:10;96867.47;;;23.59;100.00
77240;BME280;66258;53.170;-2.240;2023-10-19T06:22:39;96869.38;;;23.67;100.00
77240;BME280;66258;53.170;-2.240;2023-10-19T06:25:08;96867.44;;;23.68;100.00
77240;BME280;66258;53.170;-2.240;2023-10-19T06:27:35;96871.88;;;23.81;100.00
77240;BME280;66258;53.170;-2.240;2023-10-19T06:30:02;96872.97;;;23.88;100.00
77240;BME280;66258;53.170;-2.240;2023-10-19T06:32:29;96871.84;;;23.89;100.00
77240;BME280;66258;53.170;-2.240;2023-10-19T06:34:58;96873.31;;;23.87;100.00
77240;BME280;66258;53.170;-2.240;2023-10-19T06:37:26;96869.28;;;23.84;100.00
77240;BME280;66258;53.170;-2.240;2023-10-19T06:39:59;96877.28;;;23.98;100.00
77240;BME280;66258;53.170;-2.240;2023-10-19T06:42:27;96873.56;;;23.94;100.00
77240;BME280;66258;53.170;-2.240;2023-10-19T06:44:56;96879.03;;;24.03;100.00
77240;BME280;66258;53.170;-2.240;2023-10-19T06:47:24;96872.72;;;24.02;100.00
77240;BME280;66258;53.170;-2.240;2023-10-19T06:49:51;96869.66;;;24.16;100.00
77240;BME280;66258;53.170;-2.240;2023-10-19T06:52:21;96872.44;;;24.16;100.00
77240;BME280;66258;53.170;-2.240;2023-10-19T06:54:48;96879.78;;;24.12;100.00
77240;BME280;66258;53.170;-2.240;2023-10-19T06:57:18;96877.38;;;24.10;100.00
77240;BME280;66258;53.170;-2.240;2023-10-19T06:59:45;96873.91;;;24.13;100.00
77240;BME280;66258;53.170;-2.240;2023-10-19T07:02:12;96891.09;;;24.19;100.00
77240;BME280;66258;53.170;-2.240;2023-10-19T07:04:39;96883.75;;;24.23;100.00
77240;BME280;66258;53.170;-2.240;2023-10-19T07:07:07;96881.97;;;24.27;100.00
77240;BME280;66258;53.170;-2.240;2023-10-19T07:09:35;96888.69;;;24.38;100.00
77240;BME280;66258;53.170;-2.240;2023-10-19T07:12:03;96894.34;;;24.42;100.00
77240;BME280;66258;53.170;-2.240;2023-10-19T07:14:32;96886.59;;;24.35;100.00
77240;BME280;66258;53.170;-2.240;2023-10-19T07:16:59;96887.63;;;24.30;100.00
77240;BME280;66258;53.170;-2.240;2023-10-19T07:19:28;96881.63;;;24.28;100.00
77240;BME280;66258;53.170;-2.240;2023-10-19T07:21:55;96888.09;;;24.32;100.00
77240;BME280;66258;53.170;-2.240;2023-10-19T07:24:22;96885.78;;;24.35;100.00
77240;BME280;66258;53.170;-2.240;2023-10-19T07:26:50;96879.78;;;24.32;100.00
77240;BME280;66258;53.170;-2.240;2023-10-19T07:29:17;96886.34;;;24.28;100.00
77240;BME280;66258;53.170;-2.240;2023-10-19T07:31:46;96883.59;;;24.28;100.00
77240;BME280;66258;53.170;-2.240;2023-10-19T07:34:14;96890.75;;;24.20;100.00
77240;BME280;66258;53.170;-2.240;2023-10-19T07:36:41;96889.69;;;24.13;100.00
77240;BME280;66258;53.170;-2.240;2023-10-19T07:39:08;96882.47;;;23.99;100.00
77240;BME280;66258;53.170;-2.240;2023-10-19T07:41:38;96891.56;;;24.21;100.00
77240;BME280;66258;53.170;-2.240;2023-10-19T07:44:07;96891.59;;;24.42;100.00
77240;BME280;66258;53.170;-2.240;2023-10-19T07:46:35;96880.84;;;24.28;100.00
77240;BME280;66258;53.170;-2.240;2023-10-19T07:49:03;96890.78;;;24.41;100.00
77240;BME280;66258;53.170;-2.240;2023-10-19T07:51:32;96891.41;;;24.47;100.00
77240;BME280;66258;53.170;-2.240;2023-10-19T07:53:59;96894.28;;;24.50;100.00
77240;BME280;66258;53.170;-2.240;2023-10-19T07:56:27;96891.28;;;24.55;100.00
77240;BME280;66258;53.170;-2.240;2023-10-19T07:58:55;96893.25;;;24.55;100.00
77240;BME280;66258;53.170;-2.240;2023-10-19T08:01:22;96892.56;;;24.58;100.00
77240;BME280;66258;53.170;-2.240;2023-10-19T08:03:49;96890.38;;;24.51;100.00
77240;BME280;66258;53.170;-2.240;2023-10-19T08:06:18;96887.53;;;24.60;100.00
77240;BME280;66258;53.170;-2.240;2023-10-19T08:08:46;96901.31;;;24.48;100.00
77240;BME280;66258;53.170;-2.240;2023-10-19T08:11:16;96888.94;;;24.66;100.00
77240;BME280;66258;53.170;-2.240;2023-10-19T08:13:44;96890.06;;;24.65;100.00
77240;BME280;66258;53.170;-2.240;2023-10-19T08:16:11;96891.81;;;24.70;100.00
77240;BME280;66258;53.170;-2.240;2023-10-19T08:18:39;96894.63;;;24.82;100.00
77240;BME280;66258;53.170;-2.240;2023-10-19T08:21:06;96900.25;;;24.73;100.00
77240;BME280;66258;53.170;-2.240;2023-10-19T08:23:34;96897.09;;;24.95;100.00
77240;BME280;66258;53.170;-2.240;2023-10-19T08:26:03;96891.84;;;24.82;100.00
77240;BME280;66258;53.170;-2.240;2023-10-19T08:28:32;96905.88;;;24.97;100.00
77240;BME280;66258;53.170;-2.240;2023-10-19T08:31:00;96902.09;;;25.02;100.00
77240;BME280;66258;53.170;-2.240;2023-10-19T08:33:28;96900.25;;;25.06;100.00
77240;BME280;66258;53.170;-2.240;2023-10-19T08:35:56;96903.69;;;25.03;100.00
77240;BME280;66258;53.170;-2.240;2023-10-19T08:38:24;96900.03;;;25.23;100.00
77240;BME280;66258;53.170;-2.240;2023-10-19T08:40:53;96908.13;;;25.41;100.00
77240;BME280;66258;53.170;-2.240;2023-10-19T08:43:21;96908.72;;;25.46;100.00
77240;BME280;66258;53.170;-2.240;2023-10-19T08:45:48;96909.19;;;25.60;100.00
77240;BME280;66258;53.170;-2.240;2023-10-19T08:48:17;96908.03;;;25.86;100.00
77240;BME280;66258;53.170;-2.240;2023-10-19T08:50:44;96913.78;;;26.17;100.00
77240;BME280;66258;53.170;-2.240;2023-10-19T08:53:12;96918.19;;;26.18;100.00
77240;BME280;66258;53.170;-2.240;2023-10-19T08:55:40;96909.13;;;26.21;100.00
77240;BME280;66258;53.170;-2.240;2023-10-19T08:58:19;96920.88;;;26.43;100.00
77240;BME280;66258;53.170;-2.240;2023-10-19T09:00:47;96932.25;;;26.65;100.00
77240;BME280;66258;53.170;-2.240;2023-10-19T09:03:15;96934.66;;;26.79;100.00
77240;BME280;66258;53.170;-2.240;2023-10-19T09:05:43;96923.22;;;26.68;100.00
77240;BME280;66258;53.170;-2.240;2023-10-19T09:08:15;96929.47;;;26.65;100.00
77240;BME280;66258;53.170;-2.240;2023-10-19T09:10:43;96930.19;;;26.62;100.00
77240;BME280;66258;53.170;-2.240;2023-10-19T09:13:11;96931.91;;;26.39;100.00
77240;BME280;66258;53.170;-2.240;2023-10-19T09:15:43;96938.78;;;26.57;100.00
77240;BME280;66258;53.170;-2.240;2023-10-19T09:18:19;96933.97;;;26.70;100.00
77240;BME280;66258;53.170;-2.240;2023-10-19T09:20:48;96935.44;;;26.52;100.00
77240;BME280;66258;53.170;-2.240;2023-10-19T09:23:15;96935.34;;;26.76;100.00
77240;BME280;66258;53.170;-2.240;2023-10-19T09:25:43;96932.84;;;26.87;100.00
77240;BME280;66258;53.170;-2.240;2023-10-19T09:28:11;96937.16;;;27.12;100.00
77240;BME280;66258;53.170;-2.240;2023-10-19T09:30:38;96934.72;;;26.95;100.00
77240;BME280;66258;53.170;-2.240;2023-10-19T09:33:10;96935.28;;;26.88;100.00
77240;BME280;66258;53.170;-2.240;2023-10-19T09:35:38;96928.63;;;26.77;100.00
77240;BME280;66258;53.170;-2.240;2023-10-19T09:38:09;96938.97;;;26.64;100.00
77240;BME280;66258;53.170;-2.240;2023-10-19T09:40:36;96940.03;;;26.60;100.00
77240;BME280;66258;53.170;-2.240;2023-10-19T09:43:05;96939.16;;;26.72;100.00
77240;BME280;66258;53.170;-2.240;2023-10-19T09:45:37;96945.41;;;26.68;100.00
77240;BME280;66258;53.170;-2.240;2023-10-19T09:48:08;96960.31;;;27.04;100.00
77240;BME280;66258;53.170;-2.240;2023-10-19T09:50:35;96958.97;;;26.98;100.00
77240;BME280;66258;53.170;-2.240;2023-10-19T09:53:03;96961.06;;;27.17;100.00
77240;BME280;66258;53.170;-2.240;2023-10-19T09:55:35;96958.75;;;27.19;100.00
77240;BME280;66258;53.170;-2.240;2023-10-19T09:58:06;96958.56;;;27.12;100.00
77240;BME280;66258;53.170;-2.240;2023-10-19T10:00:36;96963.72;;;26.97;100.00
77240;BME280;66258;53.170;-2.240;2023-10-19T10:03:04;96955.94;;;27.03;100.00
77240;BME280;66258;53.170;-2.240;2023-10-19T10:05:47;96956.34;;;27.17;100.00
77240;BME280;66258;53.170;-2.240;2023-10-19T10:08:30;96953.47;;;27.29;100.00
77240;BME280;66258;53.170;-2.240;2023-10-19T10:10:56;96963.69;;;27.25;100.00
77240;BME280;66258;53.170;-2.240;2023-10-19T10:13:36;96947.94;;;27.45;100.00
77240;BME280;66258;53.170;-2.240;2023-10-19T10:16:04;96957.38;;;27.72;100.00
77240;BME280;66258;53.170;-2.240;2023-10-19T10:18:33;96940.09;;;27.63;100.00
77240;BME280;66258;53.170;-2.240;2023-10-19T10:21:13;96958.81;;;27.82;100.00
77240;BME280;66258;53.170;-2.240;2023-10-19T10:23:41;96966.06;;;27.86;100.00
77240;BME280;66258;53.170;-2.240;2023-10-19T10:26:09;96971.50;;;28.14;100.00
77240;BME280;66258;53.170;-2.240;2023-10-19T10:28:37;96966.66;;;28.27;100.00
77240;BME280;66258;53.170;-2.240;2023-10-19T10:31:12;96969.56;;;28.50;99.99
77240;BME280;66258;53.170;-2.240;2023-10-19T10:33:42;96971.03;;;28.28;99.51
77240;BME280;66258;53.170;-2.240;2023-10-19T10:36:11;96979.03;;;28.29;99.13
77240;BME280;66258;53.170;-2.240;2023-10-19T10:38:39;96977.09;;;28.49;100.00
77240;BME280;66258;53.170;-2.240;2023-10-19T10:41:06;96972.94;;;28.59;98.79
77240;BME280;66258;53.170;-2.240;2023-10-19T10:43:33;96972.28;;;28.46;97.57
77240;BME280;66258;53.170;-2.240;2023-10-19T10:46:04;96971.75;;;28.41;97.00
77240;BME280;66258;53.170;-2.240;2023-10-19T10:48:32;96970.09;;;28.20;97.25
77240;BME280;66258;53.170;-2.240;2023-10-19T10:51:00;96962.78;;;27.81;97.80
77240;BME280;66258;53.170;-2.240;2023-10-19T10:53:29;96962.63;;;28.09;97.81
77240;BME280;66258;53.170;-2.240;2023-10-19T10:56:00;96953.28;;;28.17;98.41
77240;BME280;66258;53.170;-2.240;2023-10-19T10:58:28;96961.41;;;28.22;98.09
77240;BME280;66258;53.170;-2.240;2023-10-19T11:00:55;96963.38;;;28.05;96.81
77240;BME280;66258;53.170;-2.240;2023-10-19T11:03:23;96967.63;;;28.19;96.99
77240;BME280;66258;53.170;-2.240;2023-10-19T11:05:51;96967.31;;;28.04;96.30
77240;BME280;66258;53.170;-2.240;2023-10-19T11:08:18;96965.63;;;28.00;96.45
77240;BME280;66258;53.170;-2.240;2023-10-19T11:10:49;96965.84;;;28.11;96.65
77240;BME280;66258;53.170;-2.240;2023-10-19T11:13:22;96972.78;;;28.01;96.80
77240;BME280;66258;53.170;-2.240;2023-10-19T11:15:52;96970.41;;;28.19;95.97
77240;BME280;66258;53.170;-2.240;2023-10-19T11:18:32;96971.00;;;28.24;95.90
77240;BME280;66258;53.170;-2.240;2023-10-19T11:21:01;96976.16;;;28.10;95.95
77240;BME280;66258;53.170;-2.240;2023-10-19T11:23:37;96970.50;;;28.06;96.64
77240;BME280;66258;53.170;-2.240;2023-10-19T11:26:08;96971.31;;;28.07;97.02
77240;BME280;66258;53.170;-2.240;2023-10-19T11:28:36;96973.31;;;28.22;97.17
77240;BME280;66258;53.170;-2.240;2023-10-19T11:31:13;96971.66;;;28.37;96.72
77240;BME280;66258;53.170;-2.240;2023-10-19T11:34:04;96969.25;;;28.35;95.40
77240;BME280;66258;53.170;-2.240;2023-10-19T11:36:33;96963.16;;;28.30;95.86
77240;BME280;66258;53.170;-2.240;2023-10-19T11:39:00;96970.25;;;28.27;95.14
77240;BME280;66258;53.170;-2.240;2023-10-19T11:41:29;96957.81;;;28.05;94.84
77240;BME280;66258;53.170;-2.240;2023-10-19T11:43:57;96965.34;;;28.05;95.82
77240;BME280;66258;53.170;-2.240;2023-10-19T11:46:25;96972.06;;;28.04;95.17
77240;BME280;66258;53.170;-2.240;2023-10-19T11:48:53;96971.72;;;28.21;95.21
77240;BME280;66258;53.170;-2.240;2023-10-19T11:51:21;96970.09;;;28.20;95.60
77240;BME280;66258;53.170;-2.240;2023-10-19T11:53:48;96969.00;;;28.25;94.28
77240;BME280;66258;53.170;-2.240;2023-10-19T11:56:15;96975.06;;;28.46;94.48
77240;BME280;66258;53.170;-2.240;2023-10-19T11:59:07;96965.97;;;28.49;93.61
77240;BME280;66258;53.170;-2.240;2023-10-19T12:01:34;96955.97;;;28.64;94.72
77240;BME280;66258;53.170;-2.240;2023-10-19T12:04:05;96960.72;;;29.21;93.69
77240;BME280;66258;53.170;-2.240;2023-10-19T12:06:32;96970.13;;;29.55;93.62
77240;BME280;66258;53.170;-2.240;2023-10-19T12:09:00;96958.75;;;29.64;90.81
77240;BME280;66258;53.170;-2.240;2023-10-19T12:11:27;96961.66;;;29.71;89.12
77240;BME280;66258;53.170;-2.240;2023-10-19T12:13:55;96963.94;;;29.88;87.89
77240;BME280;66258;53.170;-2.240;2023-10-19T12:16:24;96962.25;;;29.84;87.36
77240;BME280;66258;53.170;-2.240;2023-10-19T12:18:51;96957.63;;;29.91;86.63
77240;BME280;66258;53.170;-2.240;2023-10-19T12:21:18;96958.28;;;29.85;86.14
77240;BME280;66258;53.170;-2.240;2023-10-19T12:23:46;96951.84;;;30.30;84.92
77240;BME280;66258;53.170;-2.240;2023-10-19T12:26:13;96951.44;;;30.28;80.91
77240;BME280;66258;53.170;-2.240;2023-10-19T12:28:41;96952.38;;;30.39;84.02
77240;BME280;66258;53.170;-2.240;2023-10-19T12:31:33;96955.69;;;30.48;81.63
77240;BME280;66258;53.170;-2.240;2023-10-19T12:34:01;96948.84;;;30.16;81.00
77240;BME280;66258;53.170;-2.240;2023-10-19T12:36:29;96951.16;;;29.87;82.96
77240;BME280;66258;53.170;-2.240;2023-10-19T12:38:56;96949.38;;;29.75;83.73
77240;BME280;66258;53.170;-2.240;2023-10-19T12:41:25;96943.44;;;29.77;85.33
77240;BME280;66258;53.170;-2.240;2023-10-19T12:43:53;96950.00;;;29.88;84.76
77240;BME280;66258;53.170;-2.240;2023-10-19T12:46:21;96945.53;;;29.84;84.42
77240;BME280;66258;53.170;-2.240;2023-10-19T12:48:50;96948.09;;;29.47;85.13
77240;BME280;66258;53.170;-2.240;2023-10-19T12:51:19;96940.19;;;29.49;86.07
77240;BME280;66258;53.170;-2.240;2023-10-19T12:53:46;96941.38;;;29.74;85.20